Time;durP1;ratioP1;P1;durP2;ratioP2;P2;SDS_P1;SDS_P2;PMS_P1;PMS_P2;Temp;Humidity;BMP_temperature;BMP_pressure;BME280_temperature;BME280_humidity;BME280_pressure;Samples;Min_cycle;Max_cycle;Signal;HPM_P1;HPM_P2
2022/05/02 00:00:09;;;;;;;22.15;15.25;;;;;;;9.09;62.84;102031.78;4993818;28;20035;-90
2022/05/02 00:02:35;;;;;;;20.08;14.88;;;;;;;9.11;62.92;102045.84;4979310;28;20096;-88
2022/05/02 00:05:03;;;;;;;20.63;13.82;;;;;;;9.05;61.47;102033.63;4977784;28;20069;-90
2022/05/02 00:07:28;;;;;;;21.50;15.23;;;;;;;8.96;61.35;102023.22;4996253;28;20518;-89
2022/05/02 00:09:54;;;;;;;20.60;14.57;;;;;;;8.92;61.57;102014.47;4977092;28;20026;-89
2022/05/02 00:12:19;;;;;;;20.17;14.20;;;;;;;8.96;61.81;102023.22;4995271;28;20464;-90
2022/05/02 00:14:44;;;;;;;22.45;14.95;;;;;;;8.95;61.75;102034.63;4993298;28;20041;-90
2022/05/02 00:17:10;;;;;;;22.35;13.93;;;;;;;8.70;61.84;102010.38;4994000;28;20045;-88
2022/05/02 00:19:35;;;;;;;19.52;14.48;;;;;;;8.71;62.18;102016.50;4973757;28;20030;-89
2022/05/02 00:22:00;;;;;;;23.05;15.18;;;;;;;8.71;61.99;102019.16;4974411;28;20049;-90
2022/05/02 00:24:26;;;;;;;21.75;13.85;;;;;;;8.80;61.86;102034.84;4976250;28;20034;-90
2022/05/02 00:26:51;;;;;;;20.83;15.07;;;;;;;8.74;61.98;102020.00;4992764;28;20034;-88
2022/05/02 00:29:16;;;;;;;19.02;14.18;;;;;;;8.65;61.89;102013.06;4978601;28;20022;-88
2022/05/02 00:31:42;;;;;;;22.08;15.43;;;;;;;8.69;62.05;102016.53;4978535;28;20034;-89
2022/05/02 00:34:07;;;;;;;18.48;13.63;;;;;;;8.73;61.61;102020.03;4994694;28;20465;-90
2022/05/02 00:36:32;;;;;;;21.65;14.20;;;;;;;8.72;61.61;102019.16;4977574;28;20512;-89
2022/05/02 00:38:58;;;;;;;18.95;14.05;;;;;;;8.69;61.54;102006.00;4994248;28;20038;-89
2022/05/02 00:41:24;;;;;;;19.80;14.18;;;;;;;8.68;61.56;102009.53;4992841;28;20489;-91
2022/05/02 00:43:49;;;;;;;18.75;13.70;;;;;;;8.58;61.51;101992.97;4995218;28;20090;-89
2022/05/02 00:46:21;;;;;;;21.85;15.30;;;;;;;8.60;61.50;102007.00;4991392;28;20172;-90
2022/05/02 00:48:47;;;;;;;24.42;14.70;;;;;;;8.46;62.00;101997.53;4995439;28;20033;-90
2022/05/02 00:51:14;;;;;;;20.75;14.85;;;;;;;8.23;62.70;101981.97;4974251;28;20034;-89
2022/05/02 00:53:40;;;;;;;21.33;15.63;;;;;;;8.33;62.63;101997.63;4975875;28;20045;-89
2022/05/02 00:56:08;;;;;;;22.48;15.20;;;;;;;8.28;62.86;101994.19;4989888;28;20176;-89
2022/05/02 00:58:35;;;;;;;21.05;14.70;;;;;;;8.27;63.09;102002.13;4989614;28;20526;-90
2022/05/02 01:01:01;;;;;;;20.95;15.32;;;;;;;8.31;63.62;102009.09;4989530;28;20026;-89
2022/05/02 01:03:26;;;;;;;20.67;15.05;;;;;;;8.25;65.61;101999.47;4994468;28;20045;-89
2022/05/02 01:08:37;;;;;;;21.10;14.20;;;;;;;7.99;64.50;101981.38;4994888;28;20089;-88
2022/05/02 01:11:03;;;;;;;21.83;15.55;;;;;;;8.13;64.01;102003.16;4989157;28;20432;-88
2022/05/02 01:13:40;;;;;;;23.52;15.85;;;;;;;8.06;63.99;101990.06;4975182;28;20034;-87
2022/05/02 01:16:18;;;;;;;24.63;16.00;;;;;;;8.03;63.96;101988.34;4975611;28;20431;-90
2022/05/02 01:18:46;;;;;;;22.25;14.70;;;;;;;7.96;64.51;101991.06;4975007;28;20029;-91
2022/05/02 01:21:24;;;;;;;21.20;15.02;;;;;;;8.02;63.47;102007.69;4972138;28;20030;-90
2022/05/02 01:23:54;;;;;;;23.50;15.45;;;;;;;7.98;64.25;101986.66;4976930;28;20472;-89
2022/05/02 01:26:20;;;;;;;23.00;15.60;;;;;;;8.03;63.79;101993.59;4974674;28;20041;-90
2022/05/02 01:28:48;;;;;;;21.63;15.13;;;;;;;7.98;65.34;101998.06;4973968;28;20026;-90
2022/05/02 01:31:14;;;;;;;26.55;16.55;;;;;;;7.87;65.42;101994.66;4974745;28;20019;-89
2022/05/02 01:33:40;;;;;;;23.42;16.50;;;;;;;7.75;65.70;101994.78;4973014;28;20044;-89
2022/05/02 01:36:06;;;;;;;26.63;15.95;;;;;;;7.48;66.75;101962.59;4969427;28;20026;-89
2022/05/02 01:38:31;;;;;;;21.77;15.82;;;;;;;7.49;65.14;101959.06;4975268;28;20022;-89
2022/05/02 01:40:57;;;;;;;22.55;16.17;;;;;;;7.73;65.25;101999.19;4991383;28;20050;-89
2022/05/02 01:43:22;;;;;;;24.45;16.90;;;;;;;7.72;65.34;101987.78;4975224;28;20032;-90
2022/05/02 01:45:47;;;;;;;21.95;15.55;;;;;;;7.61;66.05;101979.13;4972107;28;20058;-89
2022/05/02 01:48:13;;;;;;;20.73;14.77;;;;;;;7.54;65.31;101964.28;4993047;28;20034;-90
2022/05/02 01:50:38;;;;;;;20.73;14.98;;;;;;;7.48;66.13;101965.22;4992327;28;20026;-87
2022/05/02 01:53:04;;;;;;;22.08;14.15;;;;;;;7.59;68.06;101991.41;4973511;28;20437;-89
2022/05/02 01:55:29;;;;;;;20.42;14.77;;;;;;;7.54;65.70;101985.31;4990377;28;20036;-89
2022/05/02 01:57:54;;;;;;;22.13;15.35;;;;;;;7.57;65.97;101991.44;4992118;28;20082;-89
2022/05/02 02:00:20;;;;;;;22.40;16.25;;;;;;;7.58;67.24;101985.28;4973487;28;20100;-89
2022/05/02 02:02:45;;;;;;;23.85;15.63;;;;;;;7.50;68.74;101978.34;4972801;28;20485;-89
2022/05/02 02:07:55;;;;;;;23.58;14.77;;;;;;;7.45;65.96;101975.75;4991541;28;20045;-90
2022/05/02 02:10:20;;;;;;;23.83;15.70;;;;;;;7.40;69.00;101967.03;4993816;28;20409;-89
2022/05/02 02:12:45;;;;;;;22.45;15.85;;;;;;;7.36;66.67;101968.81;4973685;28;20037;-88
2022/05/02 02:15:14;;;;;;;23.75;15.88;;;;;;;7.35;67.04;101976.72;4974250;28;20030;-90
2022/05/02 02:17:41;;;;;;;26.58;16.83;;;;;;;7.15;67.00;101953.22;4988565;28;20026;-89
2022/05/02 02:20:07;;;;;;;25.35;16.63;;;;;;;7.22;66.78;101972.44;4972322;28;20536;-90
2022/05/02 02:22:33;;;;;;;24.38;15.50;;;;;;;7.19;67.22;101975.13;4986852;28;20038;-90
2022/05/02 02:24:59;;;;;;;23.13;16.13;;;;;;;7.08;67.23;101962.91;4974844;28;20032;-89
2022/05/02 02:27:24;;;;;;;27.60;16.75;;;;;;;7.12;66.96;101974.28;4987279;28;20022;-88
2022/05/02 02:29:50;;;;;;;26.25;16.33;;;;;;;7.05;67.30;101964.72;4988839;28;20041;-90
2022/05/02 02:32:15;;;;;;;23.08;15.38;;;;;;;7.16;66.70;101987.41;4989616;28;20092;-89
2022/05/02 02:34:40;;;;;;;22.63;15.70;;;;;;;7.09;67.40;101976.97;4974915;28;20037;-88
2022/05/02 02:37:05;;;;;;;22.92;14.85;;;;;;;7.08;67.15;101978.69;4989634;28;20032;-90
2022/05/02 02:39:31;;;;;;;20.73;14.10;;;;;;;7.02;67.06;101972.59;4970067;28;20045;-89
2022/05/02 02:41:56;;;;;;;23.98;15.75;;;;;;;6.93;67.82;101959.53;4990358;28;20262;-88
2022/05/02 02:44:21;;;;;;;21.38;15.52;;;;;;;7.06;67.14;101969.06;4990848;28;20041;-90
2022/05/02 02:46:47;;;;;;;28.48;15.70;;;;;;;7.01;67.15;101955.09;4973778;28;20030;-90
2022/05/02 02:49:12;;;;;;;23.42;15.45;;;;;;;6.96;67.54;101942.00;4975969;28;20022;-90
2022/05/02 02:51:37;;;;;;;22.60;16.00;;;;;;;7.12;67.17;101971.66;4977149;28;20030;-88
2022/05/02 02:54:03;;;;;;;22.73;15.70;;;;;;;6.99;66.84;101951.59;4994850;28;20041;-91
2022/05/02 02:56:28;;;;;;;22.10;14.60;;;;;;;6.90;67.11;101947.25;4978320;28;20050;-88
2022/05/02 02:58:53;;;;;;;23.23;14.70;;;;;;;6.81;67.19;101939.47;4998200;28;20073;-91
2022/05/02 03:01:19;;;;;;;21.13;14.82;;;;;;;6.88;67.68;101949.91;4976511;28;20121;-89
2022/05/02 03:03:44;;;;;;;19.73;13.68;;;;;;;6.82;67.75;101951.72;4992930;28;20397;-89
2022/05/02 03:06:10;;;;;;;20.50;13.88;;;;;;;6.83;68.92;101961.34;4976629;28;20080;-89
2022/05/02 03:08:36;;;;;;;21.60;15.25;;;;;;;6.73;69.12;101946.53;4975944;28;20018;-89
2022/05/02 03:11:02;;;;;;;22.73;15.00;;;;;;;6.74;68.04;101954.41;4975281;28;20417;-89
2022/05/02 03:13:29;;;;;;;24.55;13.88;;;;;;;6.77;68.33;101958.78;4993286;28;20054;-89
2022/05/02 03:15:54;;;;;;;23.38;14.80;;;;;;;6.68;66.46;101949.19;4977987;28;20542;-90
2022/05/02 03:18:20;;;;;;;21.80;15.60;;;;;;;6.70;66.92;101957.91;4996140;28;20022;-87
2022/05/02 03:20:45;;;;;;;20.75;14.43;;;;;;;6.62;67.60;101931.72;4974704;28;20084;-88
2022/05/02 03:23:10;;;;;;;20.27;14.18;;;;;;;6.59;69.67;101929.09;4972923;28;20117;-89
2022/05/02 03:25:36;;;;;;;20.67;14.20;;;;;;;6.65;68.82;101951.81;4978284;28;20505;-90
2022/05/02 03:28:01;;;;;;;21.92;13.85;;;;;;;6.52;68.60;101937.88;4977527;28;20053;-89
2022/05/02 03:30:26;;;;;;;20.75;14.48;;;;;;;6.45;68.35;101916.94;4991280;28;20065;-89
2022/05/02 03:32:52;;;;;;;17.42;12.82;;;;;;;6.47;67.75;101923.91;4974456;28;20027;-92
2022/05/02 03:35:17;;;;;;;19.30;12.57;;;;;;;6.54;67.83;101941.38;4977918;28;20464;-88
2022/05/02 03:37:42;;;;;;;18.77;13.27;;;;;;;6.58;68.17;101945.75;4977236;28;20034;-89
2022/05/02 03:40:08;;;;;;;24.10;15.07;;;;;;;6.47;69.06;101933.53;4974482;28;20365;-90
2022/05/02 03:42:35;;;;;;;26.30;16.30;;;;;;;6.42;69.37;101944.06;4990245;28;20481;-89
2022/05/02 03:45:01;;;;;;;25.85;16.88;;;;;;;6.37;69.95;101944.09;4972545;28;20030;-88
2022/05/02 03:47:26;;;;;;;23.75;15.15;;;;;;;6.39;70.31;101952.00;4976051;28;20038;-89
2022/05/02 03:49:51;;;;;;;22.45;15.60;;;;;;;6.28;68.52;101938.00;4994419;28;20022;-88
2022/05/02 03:52:17;;;;;;;23.02;15.05;;;;;;;6.25;68.56;101930.16;4977454;28;20474;-88
2022/05/02 03:54:42;;;;;;;24.52;15.13;;;;;;;6.24;68.23;101924.03;4975427;28;20033;-89
2022/05/02 03:57:08;;;;;;;22.80;15.55;;;;;;;6.35;68.45;101952.88;4977972;28;20050;-88
2022/05/02 03:59:33;;;;;;;22.33;14.32;;;;;;;6.31;68.41;101948.53;4974466;28;20481;-89
2022/05/02 04:01:58;;;;;;;20.98;14.35;;;;;;;6.28;68.79;101944.13;4975038;28;20472;-88
2022/05/02 04:04:24;;;;;;;21.65;14.68;;;;;;;6.29;69.12;101950.25;4974342;28;20030;-89
2022/05/02 04:06:49;;;;;;;20.05;14.48;;;;;;;6.31;68.05;101953.78;4993348;28;20041;-88
2022/05/02 04:09:14;;;;;;;24.40;15.35;;;;;;;6.11;68.84;101932.88;4976780;28;20152;-90
2022/05/02 04:11:40;;;;;;;22.85;14.63;;;;;;;6.17;69.38;101947.72;4992776;28;20022;-89
2022/05/02 04:14:05;;;;;;;24.35;15.98;;;;;;;6.13;69.13;101938.97;4978118;28;20038;-88
2022/05/02 04:16:30;;;;;;;18.50;12.63;;;;;;;6.10;68.68;101945.09;4993151;28;20061;-88
2022/05/02 04:18:56;;;;;;;17.30;13.32;;;;;;;6.18;70.14;101949.44;4975858;28;20022;-90
2022/05/02 04:21:21;;;;;;;17.05;12.65;;;;;;;6.13;68.79;101938.97;4978002;28;20076;-89
2022/05/02 04:23:46;;;;;;;19.60;13.23;;;;;;;6.09;69.01;101924.09;4976708;28;20149;-89
2022/05/02 04:26:12;;;;;;;15.77;11.95;;;;;;;6.17;68.53;101938.06;4971162;28;20040;-90
2022/05/02 04:28:37;;;;;;;19.13;13.70;;;;;;;6.20;68.14;101939.78;4991612;28;20097;-89
2022/05/02 04:31:03;;;;;;;21.02;14.98;;;;;;;6.25;68.61;101954.69;4974873;28;20484;-88
2022/05/02 04:33:28;;;;;;;26.45;15.30;;;;;;;6.07;71.24;101921.50;4975080;28;20029;-88
2022/05/02 04:35:53;;;;;;;20.85;14.02;;;;;;;6.25;69.36;101945.91;4977597;28;20477;-89
2022/05/02 04:38:19;;;;;;;25.40;15.02;;;;;;;6.26;68.15;101931.91;4974181;28;20040;-88
2022/05/02 04:40:44;;;;;;;21.75;15.20;;;;;;;6.30;68.59;101949.41;4998386;28;20040;-87
2022/05/02 04:43:09;;;;;;;28.33;15.65;;;;;;;6.26;70.51;101938.03;4974435;28;20022;-87
2022/05/02 04:45:35;;;;;;;28.73;16.92;;;;;;;6.29;69.20;101943.25;4970496;28;20545;-87
2022/05/02 04:48:00;;;;;;;25.65;16.55;;;;;;;6.09;69.18;101903.09;4974331;28;20026;-89
2022/05/02 04:50:27;;;;;;;25.10;15.13;;;;;;;6.35;68.73;101943.25;4992354;28;20042;-88
2022/05/02 04:52:53;;;;;;;26.40;15.82;;;;;;;6.32;68.92;101930.13;4973214;28;20028;-89
2022/05/02 04:55:18;;;;;;;21.63;14.38;;;;;;;6.41;68.66;101942.34;4970164;28;20501;-88
2022/05/02 04:57:44;;;;;;;21.23;13.98;;;;;;;6.44;70.10;101933.56;4974742;28;20136;-89
2022/05/02 05:00:10;;;;;;;23.83;13.73;;;;;;;6.58;69.87;101944.88;4976623;28;20505;-88
2022/05/02 05:02:35;;;;;;;21.52;14.48;;;;;;;6.57;68.51;101941.34;4989512;28;20034;-88
2022/05/02 05:05:00;;;;;;;24.15;14.80;;;;;;;6.75;68.77;101958.75;4975040;28;20382;-87
2022/05/02 05:07:26;;;;;;;21.05;14.93;;;;;;;6.77;68.63;101958.78;4975608;28;20387;-89
2022/05/02 05:09:51;;;;;;;25.60;15.38;;;;;;;6.72;68.59;101939.53;4973268;28;20034;-89
2022/05/02 05:12:58;;;;;;;22.08;14.02;;;;;;;6.87;68.00;101949.94;4974284;28;20036;-88
2022/05/02 05:18:31;;;;;;;22.30;14.43;;;;;;;7.12;67.88;101958.50;4992368;28;20133;-88
2022/05/02 05:21:26;;;;;;;23.98;14.45;;;;;;;7.14;67.79;101946.22;4974167;28;20045;-89
2022/05/02 05:24:20;;;;;;;24.73;15.10;;;;;;;7.31;67.76;101953.97;4974118;28;20400;-89
2022/05/02 05:27:04;;;;;;;23.75;15.88;;;;;;;7.31;68.17;101948.69;4989895;28;20026;-88
2022/05/02 05:29:29;;;;;;;24.50;16.40;;;;;;;7.49;68.92;101958.19;4971839;28;20026;-88
2022/05/02 05:32:08;;;;;;;29.23;18.55;;;;;;;7.58;68.96;101953.72;4972517;28;20026;-88
2022/05/02 05:34:52;;;;;;;28.83;18.23;;;;;;;7.63;69.40;101944.00;4993428;28;20251;-88
2022/05/02 05:37:36;;;;;;;36.35;20.77;;;;;;;7.79;69.99;101951.75;4980289;28;20027;-89
2022/05/02 05:40:22;;;;;;;32.65;21.13;;;;;;;7.91;69.79;101951.59;4977261;28;20100;-88
2022/05/02 05:43:00;;;;;;;40.00;22.85;;;;;;;7.96;69.77;101938.38;4993840;28;20436;-88
2022/05/02 05:45:28;;;;;;;34.72;20.27;;;;;;;8.06;69.87;101954.06;4970360;28;20038;-89
2022/05/02 05:48:05;;;;;;;36.92;22.58;;;;;;;8.14;70.38;101949.56;4988594;28;20030;-88
2022/05/02 05:50:31;;;;;;;35.13;20.40;;;;;;;8.19;70.00;101955.66;4991727;28;20097;-88
2022/05/02 05:53:27;;;;;;;37.33;21.42;;;;;;;8.32;69.94;101950.25;4973904;28;20121;-89
2022/05/02 05:56:23;;;;;;;38.22;21.20;;;;;;;8.39;70.56;101951.91;4974684;28;20042;-89
2022/05/02 05:59:10;;;;;;;35.80;21.25;;;;;;;8.46;69.74;101940.41;4970777;28;20037;-88
2022/05/02 06:02:11;;;;;;;34.25;19.65;;;;;;;8.69;69.22;101964.69;4972131;28;20555;-89
2022/05/02 06:04:36;;;;;;;35.38;22.13;;;;;;;8.68;71.48;101949.78;4928977;28;20153;-88
2022/05/02 06:07:03;;;;;;;41.08;22.35;;;;;;;8.75;72.12;101947.91;4970981;28;20038;-89
2022/05/02 06:09:30;;;;;;;40.20;22.67;;;;;;;8.92;72.55;101960.84;4974739;28;20018;-90
2022/05/02 06:11:58;;;;;;;34.15;21.23;;;;;;;9.00;69.60;101961.59;4972031;28;20033;-88
2022/05/02 06:18:27;;;;;;;37.42;22.02;;;;;;;9.05;69.55;101957.13;4985414;28;20437;-88
2022/05/02 06:20:12;;;;;;;37.30;20.00;;;;;;;9.29;69.93;101961.13;4988091;28;20466;-89
2022/05/02 06:22:40;;;;;;;31.10;21.70;;;;;;;9.44;70.09;101971.41;4969799;28;20242;-88
2022/05/02 06:25:06;;;;;;;35.33;20.70;;;;;;;9.54;69.05;101964.19;4978992;28;20038;-88
2022/05/02 06:27:33;;;;;;;28.48;18.40;;;;;;;9.56;67.54;101951.84;4995285;28;20024;-88
2022/05/02 06:30:01;;;;;;;29.23;18.90;;;;;;;9.75;70.36;101962.09;4989937;28;20017;-86
2022/05/02 06:32:29;;;;;;;33.33;19.15;;;;;;;9.85;67.15;101958.38;4974425;28;20062;-87
2022/05/02 06:34:55;;;;;;;30.15;17.95;;;;;;;10.06;64.78;101959.69;4975526;28;20022;-86
2022/05/02 06:37:34;;;;;;;33.78;17.42;;;;;;;10.29;65.08;101972.47;4972355;28;20076;-86
2022/05/02 06:40:08;;;;;;;24.45;16.95;;;;;;;10.46;66.54;101971.22;4996715;28;20390;-86
2022/05/02 06:42:52;;;;;;;25.08;16.00;;;;;;;10.51;64.28;101957.91;4978877;28;20026;-86
2022/05/02 06:45:43;;;;;;;25.85;17.08;;;;;;;10.76;63.71;101965.28;4968937;28;20095;-88
2022/05/02 06:48:28;;;;;;;26.98;16.92;;;;;;;11.01;62.18;101969.09;4975586;28;20034;-87
2022/05/02 06:50:59;;;;;;;23.13;15.73;;;;;;;11.25;62.18;101962.34;4974962;28;20050;-87
2022/05/02 06:53:53;;;;;;;25.30;16.27;;;;;;;11.46;61.30;101968.84;4988501;28;20563;-87
2022/05/02 06:56:29;;;;;;;26.88;16.38;;;;;;;11.53;61.30;101956.34;4991687;28;20058;-88
2022/05/02 06:59:17;;;;;;;27.92;16.83;;;;;;;11.67;61.04;101964.78;4998373;28;20038;-87
2022/05/02 07:01:50;;;;;;;25.88;16.45;;;;;;;11.78;60.29;101968.00;4985648;28;20037;-89
2022/05/02 07:04:39;;;;;;;23.70;15.32;;;;;;;11.95;60.04;101971.09;4954081;28;20034;-89
2022/05/02 07:07:11;;;;;;;26.55;16.38;;;;;;;12.06;60.40;101965.50;4986156;28;20025;-89
2022/05/02 07:09:44;;;;;;;25.80;15.70;;;;;;;12.18;59.58;101954.56;4988207;28;20084;-89
2022/05/02 07:12:21;;;;;;;21.92;15.68;;;;;;;12.50;58.92;101966.88;4988181;28;20124;-89
2022/05/02 07:14:46;;;;;;;24.42;13.95;;;;;;;12.64;57.48;101971.75;4993133;28;20038;-88
2022/05/02 07:17:24;;;;;;;25.25;15.30;;;;;;;12.74;57.83;101956.41;4975707;28;20057;-88
2022/05/02 07:20:06;;;;;;;19.40;14.93;;;;;;;12.89;58.22;101952.41;4974294;28;20038;-87
2022/05/02 07:22:36;;;;;;;18.63;14.45;;;;;;;13.17;55.99;101968.31;4991290;28;20465;-86
2022/05/02 07:25:10;;;;;;;20.27;14.25;;;;;;;13.25;56.84;101956.53;4994213;28;20030;-87
2022/05/02 07:27:56;;;;;;;24.55;15.93;;;;;;;13.43;56.89;101967.44;4993599;28;20488;-88
2022/05/02 07:30:22;;;;;;;19.50;14.40;;;;;;;13.39;54.33;101964.06;4991877;28;20056;-88
2022/05/02 07:32:50;;;;;;;23.33;15.50;;;;;;;13.64;55.20;101968.50;4974380;28;20026;-89
2022/05/02 07:35:16;;;;;;;22.38;14.73;;;;;;;13.87;54.30;101968.56;4991304;28;20446;-87
2022/05/02 07:37:43;;;;;;;22.00;14.35;;;;;;;14.02;52.84;101956.50;4979085;28;20044;-89
2022/05/02 07:40:12;;;;;;;22.75;14.48;;;;;;;14.62;52.39;101963.13;4981047;28;20068;-87
2022/05/02 07:42:38;;;;;;;20.52;15.02;;;;;;;15.07;51.40;101953.38;4994188;28;20555;-88
2022/05/02 07:45:07;;;;;;;19.20;13.80;;;;;;;15.57;49.08;101961.88;4976385;28;20026;-89
2022/05/02 07:47:35;;;;;;;21.73;14.30;;;;;;;15.94;48.08;101957.63;4975451;28;20033;-88
2022/05/02 07:50:03;;;;;;;16.40;12.50;;;;;;;16.37;47.66;101963.66;4975907;28;20132;-86
2022/05/02 07:52:30;;;;;;;21.95;13.25;;;;;;;16.78;46.34;101962.59;4995248;28;20038;-88
2022/05/02 07:54:58;;;;;;;19.55;12.73;;;;;;;16.93;44.17;101949.47;4990258;28;20030;-87
2022/05/02 07:57:24;;;;;;;16.45;12.73;;;;;;;17.18;44.14;101946.44;4989444;28;20054;-87
2022/05/02 07:59:55;;;;;;;17.00;12.27;;;;;;;17.64;42.33;101954.78;4996163;28;20034;-87
2022/05/02 08:02:22;;;;;;;17.45;11.82;;;;;;;17.91;41.39;101953.38;4989701;28;20080;-87
2022/05/02 08:04:47;;;;;;;17.48;11.45;;;;;;;18.21;40.46;101952.66;4993812;28;20034;-87
2022/05/02 08:07:22;;;;;;;19.15;12.10;;;;;;;18.61;39.96;101967.41;4987241;28;20034;-88
2022/05/02 08:10:24;;;;;;;16.15;11.63;;;;;;;19.02;40.37;101961.53;4972437;28;20512;-86
2022/05/02 08:13:01;;;;;;;15.20;10.75;;;;;;;19.32;38.33;101954.38;4988204;28;20034;-85
2022/05/02 08:15:40;;;;;;;16.55;11.20;;;;;;;19.59;39.41;101959.06;4975882;28;20481;-87
2022/05/02 08:18:43;;;;;;;14.65;10.82;;;;;;;19.95;39.69;101952.41;4990373;28;20105;-86
2022/05/02 08:21:32;;;;;;;16.08;11.50;;;;;;;20.32;36.89;101948.28;4971697;28;20038;-86
2022/05/02 08:27:16;;;;;;;14.57;9.73;;;;;;;20.91;34.62;101953.50;4991840;28;20113;-87
2022/05/02 08:30:03;;;;;;;14.23;11.05;;;;;;;21.23;32.68;101951.34;4991972;28;20053;-86
2022/05/02 08:32:42;;;;;;;12.57;10.45;;;;;;;21.37;31.07;101954.00;4987017;28;20366;-87
2022/05/02 08:35:12;;;;;;;14.95;11.15;;;;;;;21.64;31.08;101953.94;4992963;28;20126;-88
2022/05/02 08:37:56;;;;;;;15.27;10.38;;;;;;;21.99;30.79;101953.28;4989280;28;20083;-88
2022/05/02 08:40:50;;;;;;;17.13;10.73;;;;;;;22.22;30.38;101951.69;4977457;28;20232;-87
2022/05/02 08:43:51;;;;;;;15.45;10.43;;;;;;;22.55;30.82;101957.34;4977848;28;20038;-88
2022/05/02 08:46:19;;;;;;;12.27;9.63;;;;;;;22.88;29.68;101937.81;4968705;28;20034;-89
2022/05/02 08:49:36;;;;;;;12.38;9.95;;;;;;;23.25;30.71;101950.38;4996020;28;20022;-87
2022/05/02 08:52:39;;;;;;;15.50;9.68;;;;;;;23.76;28.79;101948.25;4975107;28;20039;-87
2022/05/02 08:55:20;;;;;;;12.80;9.00;;;;;;;23.89;28.18;101949.00;4988132;28;20038;-88
2022/05/02 08:58:14;;;;;;;12.88;9.70;;;;;;;24.36;28.71;101948.88;4992965;28;20102;-87
2022/05/02 09:00:42;;;;;;;13.20;9.57;;;;;;;24.37;28.20;101945.22;4974922;28;20481;-87
2022/05/02 09:03:30;;;;;;;14.05;10.63;;;;;;;25.06;27.74;101947.66;4974652;28;20270;-87
2022/05/02 09:06:29;;;;;;;9.65;8.65;;;;;;;25.72;27.35;101950.16;4972671;28;20054;-87
2022/05/02 09:09:24;;;;;;;10.25;8.10;;;;;;;25.97;26.64;101944.34;4972931;28;20037;-86
2022/05/02 09:12:07;;;;;;;25.35;8.82;;;;;;;26.32;26.00;101943.09;4988504;28;20400;-89
2022/05/02 09:14:32;;;;;;;10.38;8.50;;;;;;;26.43;24.33;101943.84;4978228;28;20058;-86
2022/05/02 09:17:28;;;;;;;13.17;8.53;;;;;;;26.31;23.97;101946.78;4988300;28;20068;-88
2022/05/02 09:20:15;;;;;;;12.75;7.78;;;;;;;26.25;23.34;101948.19;4992777;28;20372;-86
2022/05/02 09:23:03;;;;;;;8.82;7.93;;;;;;;26.44;23.61;101936.59;4987193;28;20413;-88
2022/05/02 09:25:48;;;;;;;9.88;7.60;;;;;;;26.23;23.29;101939.34;4994102;28;20044;-86
2022/05/02 09:28:20;;;;;;;10.15;7.63;;;;;;;26.35;23.40;101938.25;4978196;28;20432;-87
2022/05/02 09:31:14;;;;;;;11.90;9.23;;;;;;;26.38;24.58;101937.94;4984116;28;20180;-88
2022/05/02 09:33:57;;;;;;;11.32;8.43;;;;;;;25.50;25.05;101934.91;4992879;28;20397;-87
2022/05/02 09:36:30;;;;;;;10.75;7.97;;;;;;;25.49;25.00;101930.50;4973574;28;20100;-88
2022/05/02 09:39:24;;;;;;;15.13;9.52;;;;;;;25.72;24.72;101933.91;4973243;28;20022;-87
2022/05/02 09:42:07;;;;;;;11.65;8.90;;;;;;;25.84;25.12;101925.63;4990199;28;20548;-88
2022/05/02 09:50:48;;;;;;;10.05;7.95;;;;;;;25.19;25.98;101913.19;4982508;28;20092;-88
2022/05/02 09:53:50;;;;;;;10.15;8.27;;;;;;;25.05;26.91;101921.59;4980350;28;20030;-87
2022/05/02 09:56:38;;;;;;;10.60;8.77;;;;;;;24.03;25.98;101901.97;4984290;28;20068;-90
2022/05/02 09:59:24;;;;;;;17.88;9.75;;;;;;;23.58;28.58;101906.44;4979229;28;20054;-90
2022/05/02 10:02:12;;;;;;;14.00;8.05;;;;;;;24.06;28.55;101914.34;4986453;28;20026;-88
2022/05/02 10:05:06;;;;;;;15.10;8.65;;;;;;;24.30;26.99;101914.25;4991095;28;21037;-89
2022/05/02 10:07:40;;;;;;;9.38;7.80;;;;;;;24.47;26.35;101913.75;4996448;28;20645;-88
2022/05/02 10:10:14;;;;;;;10.93;8.10;;;;;;;24.40;26.96;101908.00;4990602;28;20569;-89
2022/05/02 10:12:40;;;;;;;14.20;6.97;;;;;;;24.89;25.92;101909.31;4972497;28;20045;-87
2022/05/02 10:15:18;;;;;;;12.52;8.82;;;;;;;24.66;24.66;101911.25;4996174;28;20127;-88
2022/05/02 10:18:05;;;;;;;13.43;8.30;;;;;;;24.53;25.96;101907.84;4989745;28;20034;-88
2022/05/02 10:21:08;;;;;;;11.35;8.25;;;;;;;24.48;27.59;101891.16;4992240;28;20485;-89
2022/05/02 10:23:59;;;;;;;9.75;8.18;;;;;;;25.11;26.38;101904.84;4977442;28;20514;-94
2022/05/02 10:26:31;;;;;;;12.43;8.57;;;;;;;25.29;25.62;101906.00;4976026;28;20026;-86
2022/05/02 10:29:23;;;;;;;8.75;7.70;;;;;;;25.37;26.38;101895.38;4992465;28;20066;-88
2022/05/02 10:32:03;;;;;;;11.07;8.15;;;;;;;25.47;25.33;101898.13;4988970;28;20057;-88
2022/05/02 10:34:30;;;;;;;50.30;9.93;;;;;;;25.23;24.07;101890.28;4987804;28;20034;-88
2022/05/02 10:37:00;;;;;;;9.27;8.20;;;;;;;24.47;25.05;101893.97;4977322;28;20093;-88
2022/05/02 10:39:39;;;;;;;12.20;8.70;;;;;;;23.91;25.95;101893.00;4974161;28;20580;-90
2022/05/02 10:42:10;;;;;;;12.68;9.02;;;;;;;23.48;25.26;101891.94;4979623;28;20486;-88
2022/05/02 10:45:02;;;;;;;10.68;8.70;;;;;;;23.65;26.26;101891.53;4974025;28;20041;-87
2022/05/02 10:47:37;;;;;;;11.48;8.13;;;;;;;23.55;25.50;101882.38;4989439;28;20081;-89
2022/05/02 10:50:04;;;;;;;10.50;7.75;;;;;;;23.69;26.75;101887.59;4974325;28;20113;-88
2022/05/02 10:52:48;;;;;;;11.18;7.82;;;;;;;24.21;26.05;101890.69;4988785;28;20038;-88
2022/05/02 10:55:30;;;;;;;9.60;8.60;;;;;;;24.56;25.61;101874.28;4990999;28;20028;-88
2022/05/02 10:58:01;;;;;;;10.15;8.85;;;;;;;24.68;26.33;101881.38;4994129;28;20069;-88
2022/05/02 11:00:28;;;;;;;16.30;8.97;;;;;;;25.02;25.39;101873.97;4990890;28;20038;-88
2022/05/02 11:03:11;;;;;;;20.75;8.98;;;;;;;25.25;25.12;101874.75;4978343;28;20030;-87
2022/05/02 11:06:07;;;;;;;10.85;8.63;;;;;;;25.47;25.08;101876.47;4995436;28;20195;-89
2022/05/02 11:08:47;;;;;;;12.07;9.07;;;;;;;25.44;24.79;101872.16;4993098;28;20017;-89
2022/05/02 11:11:26;;;;;;;8.82;7.93;;;;;;;25.79;25.07;101872.84;4976181;28;20037;-87
2022/05/02 11:14:00;;;;;;;15.90;9.60;;;;;;;25.37;23.30;101872.84;4988958;28;20077;-88
2022/05/02 11:16:30;;;;;;;9.93;8.90;;;;;;;25.71;23.82;101870.75;4978920;28;20105;-91
2022/05/02 11:22:15;;;;;;;11.18;9.20;;;;;;;26.03;24.03;101861.66;4995005;28;20128;-89
2022/05/02 11:25:01;;;;;;;14.07;9.25;;;;;;;26.24;22.82;101859.72;4992873;28;20037;-88
2022/05/02 11:27:26;;;;;;;18.10;8.93;;;;;;;26.31;21.95;101860.88;4992430;28;20041;-91
2022/05/02 11:30:07;;;;;;;9.90;8.70;;;;;;;26.36;22.62;101857.75;4984382;28;20023;-86
2022/05/02 11:33:04;;;;;;;11.25;8.77;;;;;;;26.42;23.06;101863.47;4972882;28;20272;-87
2022/05/02 11:35:32;;;;;;;11.05;8.73;;;;;;;26.69;22.40;101843.84;4988529;28;20497;-88
2022/05/02 11:38:07;;;;;;;12.63;9.15;;;;;;;26.71;22.75;101841.81;4976584;28;20038;-88
2022/05/02 11:40:41;;;;;;;9.45;8.25;;;;;;;26.67;23.11;101840.41;4974555;28;20150;-90
2022/05/02 11:43:08;;;;;;;10.75;9.10;;;;;;;26.75;20.98;101831.53;4995296;28;20022;-90
2022/05/02 11:45:43;;;;;;;11.60;8.75;;;;;;;26.79;22.49;101846.53;4989089;28;20432;-87
2022/05/02 11:48:29;;;;;;;10.52;8.82;;;;;;;26.75;21.75;101841.53;4971106;28;20125;-88
2022/05/02 11:50:56;;;;;;;10.50;8.40;;;;;;;26.76;22.36;101835.13;4977024;28;20042;-87
2022/05/02 11:53:28;;;;;;;14.98;8.95;;;;;;;26.69;22.51;101827.56;4975470;28;20026;-88
2022/05/02 11:55:55;;;;;;;10.68;8.95;;;;;;;26.39;22.86;101828.50;4986605;28;20025;-87
2022/05/02 11:58:36;;;;;;;19.90;10.10;;;;;;;26.20;22.65;101839.28;4995226;28;20046;-89
2022/05/02 12:01:04;;;;;;;13.38;8.73;;;;;;;26.43;23.07;101832.66;4978547;28;20504;-89
2022/05/02 12:03:54;;;;;;;12.73;9.05;;;;;;;26.67;22.62;101836.81;4976914;28;20497;-88
2022/05/02 12:06:41;;;;;;;25.83;9.80;;;;;;;26.98;22.50;101823.09;4984923;28;20038;-89